map of YRB home
YRB - Airport
Location
City:  Resolute, Nunavut, Canada
Near (Alt.):Qausuittuq
Name:Resolute Bay Airport
ICAO:CYRB
IATA:YRB

Details
Type:Airport (Airfield)
Use:Public/Civil
Latitude:7443'01"N (74.716944)
Longitude:9458'10"W (-94.969443)
Elevation:222 ft (68 m)
Variation:20.38W (WMM2015v2 magnetic declination)
1.00 annual change
Runways:1
Longest:6504 ft (1982 m)

Time
Time Zone:UTC-6 (DST-5)
Local Time:

Weather
METAR:CYRB 041400Z 26005KT 240V320 15SM IC SKC M34/M38 A3028 RMK SLP268
TAF:CYRB 041138Z 0412/0512 34010KT P6SM IC SKC
RMK NXT FCST BY 041800Z

Related Locations
Nearby:
Farthest:YWKS: 11621 mi / 18702 km
Wilkins Runway (Casey), Upper Peterson Glacier, AQ

Find:

   beyond  
but within

Other Information
Maps:
NOTAMs:
Links:
Sources:

  
  • flag of Canada
  • flag of Nunavut
  • flag of Resolute
  

Airport Diagram

Airport diagram for YRB

Airport diagram PDF

Sectional Chart

Flight Planning
at skyvector.com

Satellite Image

Google Maps Satellite view

 

Copyright © 2004-2019 Karl L. Swartz. All rights reserved.
The Great Circle Mapper name and logo are trademarks of the Great Circle Mapper.
All other trademarks mentioned herein belong to their respective owners.
Please see credits for attibutions and further copyright information.

  Follow gcmap on Facebook Follow gcmap on Twitter GCmap on LinkedIn

hCard Microformat

Geo Microformat